Terminal Aerodrome Forecast
Issued by NWS

Home | Current Version | Previous Version | Graphics & Text | Print | Product List | Glossary On
Versions: 1 2 3 4 5 6 7 8 9 10 11 12 13 14 15 16 17 18 19 20 21 22 23 24 25 26 27 28 29 30 31 32 33 34 35 36 37 38
000
FTUS43 KGRB 281700
TAFRHI
TAF
KRHI 281729Z 2818/2918 08007KT P6SM SCT200
     FM282100 14007KT P6SM SCT050 OVC070
     FM290300 12007KT 4SM -SHRA BR OVC025
     FM290800 12004KT 3SM RA BR OVC021
     FM291500 17008KT 5SM -SHRA SCT017 OVC023
      TEMPO 2917/2918 2SM TSRA OVC017CB=

USA.gov is the U.S. government's official web portal to all federal, state and local government web resources and services.